Airport View

Enter AWOS ICAO identifier for current METAR.

ex. KFNL

K2V5 261159Z AUTO 25006KT 10SM CLR 15/10 A2998 RMK AO2

26 Jun 2019 11:49

Frequency: 118.250

Phone: 970-332-5930

Other Area AWOS: K2V6 - KHEQ - KSYF - KAKO

TAF AMD KGLD 260808Z 2608/2706 21020G30KT P6SM SKC FM261300 19015KT P6SM SKC FM261900 18018G26KT P6SM SCT120 PROB30 2622/2702 VRB35G45KT 5SM -TSRA BKN100CB